createdAt,value
2018-06-11T00:01:14.176Z,39.10
2018-06-11T00:03:42.603Z,42.43
2018-06-11T00:06:10.982Z,40.90
2018-06-11T00:08:39.393Z,42.57
2018-06-11T00:11:07.771Z,41.40
2018-06-11T00:13:36.158Z,39.67
2018-06-11T00:16:04.563Z,39.87
2018-06-11T00:18:32.947Z,44.87
2018-06-11T00:21:01.338Z,46.73
2018-06-11T00:23:29.813Z,43.40
2018-06-11T00:25:58.210Z,43.13
2018-06-11T00:28:26.587Z,42.20
2018-06-11T00:30:54.983Z,42.17
2018-06-11T00:33:23.362Z,42.77
2018-06-11T00:35:51.758Z,39.90
2018-06-11T00:38:20.135Z,50.90
2018-06-11T00:40:48.540Z,48.90
2018-06-11T00:43:16.916Z,51.80
2018-06-11T00:45:45.315Z,47.40
2018-06-11T00:48:13.694Z,45.60
2018-06-11T00:50:42.094Z,49.17
2018-06-11T00:53:10.477Z,47.50
2018-06-11T00:55:50.139Z,44.27
2018-06-11T00:58:18.514Z,50.57
2018-06-11T01:00:46.910Z,51.50
2018-06-11T01:03:15.319Z,52.77
2018-06-11T01:05:43.714Z,55.87
2018-06-11T01:08:12.086Z,52.60
2018-06-11T01:10:40.491Z,50.47
2018-06-11T01:13:08.870Z,51.07
2018-06-11T01:15:37.262Z,54.03
2018-06-11T01:18:05.645Z,50.20
2018-06-11T01:20:34.048Z,53.00
2018-06-11T01:23:02.431Z,50.40
2018-06-11T01:25:30.834Z,50.60
2018-06-11T01:27:59.201Z,51.20
2018-06-11T01:30:27.594Z,50.27
2018-06-11T01:32:55.961Z,48.57
2018-06-11T01:35:24.378Z,48.27
2018-06-11T01:37:52.752Z,51.23
2018-06-11T01:40:21.126Z,55.43
2018-06-11T01:42:49.530Z,51.27
2018-06-11T01:45:17.902Z,53.70
2018-06-11T01:47:46.303Z,47.77
2018-06-11T01:50:14.686Z,46.30
2018-06-11T01:52:43.090Z,48.43
2018-06-11T01:55:11.466Z,47.90
2018-06-11T01:57:39.870Z,47.27
2018-06-11T02:00:08.248Z,47.73
2018-06-11T02:02:36.675Z,50.03
2018-06-11T02:05:05.081Z,47.17
2018-06-11T02:07:33.490Z,47.00
2018-06-11T02:10:01.867Z,42.07
2018-06-11T02:12:30.262Z,45.40
2018-06-11T02:14:58.639Z,40.57
2018-06-11T02:17:27.039Z,42.17
2018-06-11T02:19:55.410Z,42.07
2018-06-11T02:22:23.858Z,40.70
2018-06-11T02:24:52.235Z,42.90
2018-06-11T02:27:20.638Z,45.47
2018-06-11T02:29:49.024Z,41.70
2018-06-11T02:32:17.430Z,42.57
2018-06-11T02:34:45.806Z,41.40
2018-06-11T02:37:14.202Z,43.63
2018-06-11T02:39:42.574Z,42.00
2018-06-11T02:42:10.987Z,40.57
2018-06-11T02:44:39.367Z,37.20
2018-06-11T02:47:07.767Z,39.40
2018-06-11T02:49:36.146Z,40.23
2018-06-11T02:52:04.542Z,37.60
2018-06-11T02:54:33.024Z,36.40
2018-06-11T02:57:01.402Z,37.47
2018-06-11T02:59:29.807Z,41.73
2018-06-11T03:01:58.202Z,35.93
2018-06-11T03:04:26.630Z,39.27
2018-06-11T03:06:55.010Z,38.47
2018-06-11T03:09:23.411Z,34.30
2018-06-11T03:11:51.790Z,30.00
2018-06-11T03:14:20.191Z,35.00
2018-06-11T03:16:48.571Z,33.83
2018-06-11T03:19:16.970Z,30.83
2018-06-11T03:21:45.346Z,30.73
2018-06-11T03:24:13.750Z,28.77
2018-06-11T03:26:42.126Z,27.53
2018-06-11T03:29:10.522Z,26.40
2018-06-11T03:31:38.898Z,25.93
2018-06-11T03:34:07.298Z,25.53
2018-06-11T03:36:35.678Z,23.20
2018-06-11T03:39:06.070Z,25.03
2018-06-11T03:41:34.450Z,24.90
2018-06-11T03:44:02.850Z,26.63
2018-06-11T03:46:31.226Z,26.10
2018-06-11T03:48:59.627Z,25.30
2018-06-11T03:51:28.000Z,24.70
2018-06-11T03:53:56.406Z,24.53
2018-06-11T03:56:24.786Z,25.23
2018-06-11T03:58:53.188Z,25.13
2018-06-11T04:01:21.566Z,24.83
2018-06-11T04:03:49.982Z,25.10
2018-06-11T04:06:18.354Z,25.60
2018-06-11T04:08:46.766Z,22.93
2018-06-11T04:11:15.198Z,22.97
2018-06-11T04:13:43.575Z,23.87
2018-06-11T04:16:11.946Z,24.00
2018-06-11T04:18:40.327Z,23.73
2018-06-11T04:21:08.727Z,23.93
2018-06-11T04:23:37.103Z,22.17
2018-06-11T04:26:05.778Z,23.77
2018-06-11T04:28:34.151Z,20.17
2018-06-11T04:31:02.631Z,17.17
2018-06-11T04:33:31.058Z,16.77
2018-06-11T04:35:59.450Z,19.53
2018-06-11T04:38:27.854Z,16.90
2018-06-11T04:40:56.253Z,16.40
2018-06-11T04:43:24.622Z,17.03
2018-06-11T04:45:53.014Z,16.43
2018-06-11T04:48:21.386Z,16.00
2018-06-11T04:50:49.781Z,15.53
2018-06-11T04:53:18.154Z,14.50
2018-06-11T04:55:46.550Z,14.30
2018-06-11T04:58:14.923Z,13.90
2018-06-11T05:00:43.318Z,13.97
2018-06-11T05:03:11.716Z,13.80
2018-06-11T05:05:40.114Z,15.37
2018-06-11T05:08:08.541Z,12.50
2018-06-11T05:10:36.906Z,11.07
2018-06-11T05:13:05.273Z,10.87
2018-06-11T05:15:33.682Z,10.60
2018-06-11T05:18:02.086Z,10.00
2018-06-11T05:20:30.482Z,10.37
2018-06-11T05:22:58.888Z,10.87
2018-06-11T05:25:27.283Z,11.67
2018-06-11T05:27:55.661Z,10.90
2018-06-11T05:30:24.055Z,10.23
2018-06-11T05:32:52.427Z,11.43
2018-06-11T05:35:20.799Z,10.70
2018-06-11T05:37:49.195Z,9.83
2018-06-11T05:40:17.578Z,12.00
2018-06-11T05:42:45.976Z,11.73
2018-06-11T05:45:14.347Z,11.77
2018-06-11T05:47:42.742Z,10.93
2018-06-11T05:50:11.110Z,12.90
2018-06-11T05:52:39.506Z,12.60
2018-06-11T05:55:07.881Z,12.83
2018-06-11T05:57:36.339Z,12.20
2018-06-11T06:00:04.895Z,13.37
2018-06-11T06:02:33.314Z,12.80
2018-06-11T06:05:01.696Z,11.67
2018-06-11T06:07:30.094Z,11.53
2018-06-11T06:09:58.470Z,12.17
2018-06-11T06:12:26.866Z,12.23
2018-06-11T06:14:55.239Z,11.57
2018-06-11T06:17:23.634Z,11.70
2018-06-11T06:19:52.006Z,11.20
2018-06-11T06:22:20.405Z,11.97
2018-06-11T06:24:48.786Z,11.63
2018-06-11T06:27:17.215Z,10.67
2018-06-11T06:29:45.594Z,11.10
2018-06-11T06:32:14.002Z,11.43
2018-06-11T06:34:42.437Z,10.50
2018-06-11T06:37:10.815Z,11.33
2018-06-11T06:39:39.226Z,10.80
2018-06-11T06:42:07.632Z,10.90
2018-06-11T06:44:36.016Z,10.77
2018-06-11T06:47:04.416Z,9.20
2018-06-11T06:49:32.790Z,9.30
2018-06-11T06:52:01.199Z,8.13
2018-06-11T06:54:29.575Z,7.50
2018-06-11T06:56:57.943Z,8.60
2018-06-11T06:59:26.378Z,8.17
2018-06-11T07:01:54.746Z,8.00
2018-06-11T07:04:23.156Z,6.40
2018-06-11T07:06:51.522Z,6.93
2018-06-11T07:09:19.919Z,6.13
2018-06-11T07:11:48.290Z,7.87
2018-06-11T07:14:16.676Z,6.40
2018-06-11T07:16:45.051Z,5.83
2018-06-11T07:19:13.447Z,5.73
2018-06-11T07:21:41.825Z,5.70
2018-06-11T07:24:10.214Z,5.50
2018-06-11T07:26:38.584Z,6.17
2018-06-11T07:29:06.974Z,6.47
2018-06-11T07:31:35.338Z,6.10
2018-06-11T07:34:03.735Z,7.20
2018-06-11T07:36:32.119Z,6.50
2018-06-11T07:39:00.621Z,6.70
2018-06-11T07:41:28.992Z,5.90
2018-06-11T07:43:57.415Z,5.90
2018-06-11T07:46:25.786Z,7.77
2018-06-11T07:48:54.150Z,6.60
2018-06-11T07:51:22.564Z,5.77
2018-06-11T07:53:50.938Z,5.63
2018-06-11T07:56:19.322Z,6.00
2018-06-11T07:58:47.690Z,5.67
2018-06-11T08:01:16.087Z,6.60
2018-06-11T08:03:44.495Z,6.27
2018-06-11T08:06:12.895Z,6.60
2018-06-11T08:08:41.268Z,6.10
2018-06-11T08:11:09.661Z,6.40
2018-06-11T08:13:38.098Z,6.37
2018-06-11T08:16:06.455Z,6.07
2018-06-11T08:18:34.819Z,5.10
2018-06-11T08:21:03.206Z,4.57
2018-06-11T08:23:31.580Z,4.20
2018-06-11T08:25:59.963Z,5.03
2018-06-11T08:28:28.331Z,4.37
2018-06-11T08:30:56.743Z,5.30
2018-06-11T08:33:25.112Z,5.40
2018-06-11T08:35:53.507Z,4.57
2018-06-11T08:38:21.883Z,3.63
2018-06-11T08:40:50.294Z,4.97
2018-06-11T08:43:18.720Z,4.30
2018-06-11T08:45:47.073Z,5.63
2018-06-11T08:48:15.454Z,4.03
2018-06-11T08:50:43.821Z,4.07
2018-06-11T08:53:12.205Z,3.80
2018-06-11T08:55:40.570Z,3.80
2018-06-11T08:58:09.165Z,3.17
2018-06-11T09:00:37.534Z,3.90
2018-06-11T09:03:05.951Z,4.33
2018-06-11T09:05:34.318Z,3.93
2018-06-11T09:08:02.714Z,4.43
2018-06-11T09:10:31.083Z,4.77
2018-06-11T09:12:59.483Z,5.20
2018-06-11T09:15:27.846Z,4.07
2018-06-11T09:17:56.271Z,4.60
2018-06-11T09:20:24.641Z,4.97
2018-06-11T09:22:53.035Z,4.50
2018-06-11T09:25:21.404Z,4.30
2018-06-11T09:27:49.787Z,4.30
2018-06-11T09:30:18.158Z,3.90
2018-06-11T09:32:46.547Z,4.50
2018-06-11T09:35:14.954Z,4.30
2018-06-11T09:37:43.326Z,4.30
2018-06-11T09:40:11.719Z,4.20
2018-06-11T09:42:40.099Z,4.10
2018-06-11T09:45:08.494Z,4.47
2018-06-11T09:47:36.863Z,3.80
2018-06-11T09:50:05.290Z,3.90
2018-06-11T09:52:33.655Z,4.13
2018-06-11T09:55:02.046Z,4.50
2018-06-11T09:57:30.405Z,4.70
2018-06-11T09:59:58.849Z,3.77
2018-06-11T10:02:27.243Z,4.80
2018-06-11T10:04:55.626Z,4.90
2018-06-11T10:07:23.998Z,4.30
2018-06-11T10:09:52.389Z,4.87
2018-06-11T10:12:20.833Z,3.90
2018-06-11T10:14:49.172Z,4.10
2018-06-11T10:17:17.544Z,4.00
2018-06-11T10:19:45.936Z,4.73
2018-06-11T10:22:14.363Z,4.90
2018-06-11T10:24:42.754Z,4.13
2018-06-11T10:27:11.197Z,5.13
2018-06-11T10:29:39.594Z,4.83
2018-06-11T10:32:07.982Z,5.23
2018-06-11T10:34:36.369Z,5.30
2018-06-11T10:37:04.746Z,5.13
2018-06-11T10:39:33.143Z,4.77
2018-06-11T10:42:01.515Z,4.40
2018-06-11T10:44:29.912Z,4.33
2018-06-11T10:46:58.303Z,3.90
2018-06-11T10:49:26.695Z,4.67
2018-06-11T10:51:55.071Z,4.13
2018-06-11T10:54:23.482Z,4.33
2018-06-11T10:56:51.849Z,4.93
2018-06-11T10:59:20.221Z,4.97
2018-06-11T11:01:48.638Z,5.63
2018-06-11T11:04:17.025Z,5.90
2018-06-11T11:06:45.422Z,6.07
2018-06-11T11:09:13.794Z,5.13
2018-06-11T11:11:42.190Z,4.80
2018-06-11T11:14:10.571Z,4.27
2018-06-11T11:16:38.958Z,5.30
2018-06-11T11:19:07.339Z,4.77
2018-06-11T11:21:35.738Z,4.60
2018-06-11T11:24:04.154Z,4.50
2018-06-11T11:26:32.532Z,4.57
2018-06-11T11:29:00.902Z,4.90
2018-06-11T11:31:29.299Z,5.07
2018-06-11T11:33:57.695Z,3.57
2018-06-11T11:36:26.095Z,4.00
2018-06-11T11:38:54.474Z,4.30
2018-06-11T11:41:23.508Z,3.70
2018-06-11T11:43:51.882Z,4.47
2018-06-11T11:46:20.278Z,3.80
2018-06-11T11:48:48.634Z,3.77
2018-06-11T11:51:17.026Z,3.57
2018-06-11T11:53:45.394Z,3.50
2018-06-11T11:56:13.805Z,3.50
2018-06-11T11:58:42.173Z,3.50
2018-06-11T12:01:10.570Z,3.50
2018-06-11T12:03:38.953Z,3.67
2018-06-11T12:06:07.435Z,4.17
2018-06-11T12:08:35.807Z,3.77
2018-06-11T12:11:04.213Z,4.20
2018-06-11T12:13:32.604Z,3.63
2018-06-11T12:16:00.974Z,3.03
2018-06-11T12:18:29.412Z,4.13
2018-06-11T12:20:57.782Z,3.70
2018-06-11T12:23:26.273Z,4.57
2018-06-11T12:25:54.638Z,4.00
2018-06-11T12:28:23.031Z,4.97
2018-06-11T12:30:51.404Z,3.63
2018-06-11T12:33:19.790Z,3.80
2018-06-11T12:35:48.155Z,3.83
2018-06-11T12:38:16.543Z,4.00
2018-06-11T12:40:44.908Z,3.90
2018-06-11T12:43:13.290Z,3.80
2018-06-11T12:45:41.658Z,3.30
2018-06-11T12:48:10.038Z,3.37
2018-06-11T12:50:38.422Z,3.60
2018-06-11T12:53:08.519Z,3.77
2018-06-11T12:55:36.890Z,2.97
2018-06-11T12:58:05.303Z,3.60
2018-06-11T13:00:33.695Z,3.40
2018-06-11T13:03:02.183Z,3.07
2018-06-11T13:05:30.551Z,2.83
2018-06-11T13:07:58.939Z,2.90
2018-06-11T13:10:27.307Z,2.67
2018-06-11T13:12:55.692Z,2.40
2018-06-11T13:15:24.063Z,3.30
2018-06-11T13:17:52.451Z,3.43
2018-06-11T13:20:20.822Z,2.77
2018-06-11T13:22:49.214Z,3.33
2018-06-11T13:25:17.578Z,3.10
2018-06-11T13:27:45.990Z,3.43
2018-06-11T13:30:14.351Z,3.20
2018-06-11T13:32:42.710Z,3.10
2018-06-11T13:35:11.129Z,3.43
2018-06-11T13:37:39.494Z,3.33
2018-06-11T13:40:07.888Z,2.97
2018-06-11T13:42:36.254Z,3.00
2018-06-11T13:45:04.714Z,3.27
2018-06-11T13:47:33.087Z,4.00
2018-06-11T13:50:01.478Z,3.50
2018-06-11T13:52:29.866Z,3.13
2018-06-11T13:54:58.259Z,2.80
2018-06-11T13:57:26.630Z,3.07
2018-06-11T13:59:55.019Z,3.40
2018-06-11T14:02:23.402Z,3.10
2018-06-11T14:04:51.782Z,3.17
2018-06-11T14:07:20.158Z,2.70
2018-06-11T14:09:48.558Z,3.07
2018-06-11T14:12:16.943Z,2.73
2018-06-11T14:14:45.334Z,3.00
2018-06-11T14:17:13.698Z,3.50
2018-06-11T14:19:42.095Z,2.93
2018-06-11T14:22:10.459Z,2.80
2018-06-11T14:24:38.842Z,3.07
2018-06-11T14:27:07.210Z,3.40
2018-06-11T14:29:35.606Z,2.90
2018-06-11T14:32:04.139Z,3.50
2018-06-11T14:34:32.531Z,3.07
2018-06-11T14:37:01.031Z,3.30
2018-06-11T14:39:29.558Z,2.83
2018-06-11T14:41:57.965Z,2.90
2018-06-11T14:44:26.348Z,2.83
2018-06-11T14:46:54.752Z,3.77
2018-06-11T14:49:23.131Z,2.67
2018-06-11T14:51:51.522Z,3.40
2018-06-11T14:54:19.894Z,3.40
2018-06-11T14:56:48.282Z,3.07
2018-06-11T14:59:16.652Z,3.67
2018-06-11T15:01:45.043Z,2.60
2018-06-11T15:04:13.435Z,2.90
2018-06-11T15:06:41.822Z,3.13
2018-06-11T15:09:10.191Z,3.20
2018-06-11T15:11:38.584Z,2.90
2018-06-11T15:14:06.975Z,3.43
2018-06-11T15:16:35.358Z,3.33
2018-06-11T15:19:03.856Z,2.80
2018-06-11T15:21:33.038Z,2.50
2018-06-11T15:24:01.402Z,3.30
2018-06-11T15:26:29.791Z,2.80
2018-06-11T15:28:58.159Z,2.90
2018-06-11T15:31:26.555Z,2.60
2018-06-11T15:33:54.918Z,3.33
2018-06-11T15:36:23.310Z,3.37
2018-06-11T15:38:51.674Z,2.70
2018-06-11T15:41:20.059Z,3.00
2018-06-11T15:43:48.423Z,3.00
2018-06-11T15:46:16.823Z,3.60
2018-06-11T15:48:45.183Z,2.70
2018-06-11T15:51:13.578Z,4.17
2018-06-11T15:53:41.951Z,2.87
2018-06-11T15:56:10.352Z,2.67
2018-06-11T15:58:38.722Z,3.00
2018-06-11T16:01:07.295Z,3.60
2018-06-11T16:03:35.690Z,3.37
2018-06-11T16:06:04.066Z,3.17
2018-06-11T16:08:32.466Z,3.30
2018-06-11T16:11:00.838Z,3.10
2018-06-11T16:13:29.236Z,3.70
2018-06-11T16:15:57.603Z,3.13
2018-06-11T16:18:26.011Z,3.83
2018-06-11T16:20:54.385Z,4.47
2018-06-11T16:23:22.779Z,3.60
2018-06-11T16:25:51.238Z,3.20
2018-06-11T16:28:19.641Z,3.60
2018-06-11T16:30:48.019Z,3.20
2018-06-11T16:33:16.428Z,4.40
2018-06-11T16:35:44.799Z,3.93
2018-06-11T16:38:13.228Z,3.70
2018-06-11T16:40:41.620Z,3.93
2018-06-11T16:43:10.178Z,4.13
2018-06-11T16:45:38.927Z,3.47
2018-06-11T16:48:07.314Z,4.43
2018-06-11T16:50:35.692Z,4.90
2018-06-11T16:53:04.088Z,4.20
2018-06-11T16:55:32.467Z,3.33
2018-06-11T16:58:00.859Z,3.77
2018-06-11T17:00:29.237Z,3.97
2018-06-11T17:02:57.654Z,4.00
2018-06-11T17:05:26.101Z,3.90
2018-06-11T17:07:54.519Z,3.43
2018-06-11T17:10:22.939Z,3.67
2018-06-11T17:12:51.326Z,3.43
2018-06-11T17:15:19.696Z,3.10
2018-06-11T17:17:48.115Z,3.53
2018-06-11T17:20:16.556Z,3.20
2018-06-11T17:22:44.942Z,3.20
2018-06-11T17:25:13.319Z,3.57
2018-06-11T17:27:41.702Z,3.10
2018-06-11T17:30:10.107Z,2.83
2018-06-11T17:32:38.519Z,3.10
2018-06-11T17:35:06.914Z,3.23
2018-06-11T17:37:35.403Z,3.63
2018-06-11T17:40:03.815Z,3.23
2018-06-11T17:42:32.186Z,3.73
2018-06-11T17:45:00.599Z,3.53
2018-06-11T17:47:28.992Z,4.03
2018-06-11T17:49:57.648Z,4.37
2018-06-11T17:52:26.019Z,3.40
2018-06-11T17:54:54.406Z,3.70
2018-06-11T17:57:22.872Z,3.53
2018-06-11T17:59:51.315Z,4.87
2018-06-11T18:02:19.727Z,4.50
2018-06-11T18:04:48.126Z,4.20
2018-06-11T18:07:16.497Z,4.43
2018-06-11T18:09:44.911Z,5.17
2018-06-11T18:12:13.304Z,4.20
2018-06-11T18:14:41.712Z,5.27
2018-06-11T18:17:10.098Z,4.07
2018-06-11T18:19:38.503Z,3.90
2018-06-11T18:22:06.888Z,5.47
2018-06-11T18:24:35.282Z,4.57
2018-06-11T18:27:03.658Z,6.10
2018-06-11T18:29:32.048Z,4.27
2018-06-11T18:32:00.418Z,4.83
2018-06-11T18:34:28.815Z,4.87
2018-06-11T18:36:57.187Z,4.40
2018-06-11T18:39:25.575Z,5.20
2018-06-11T18:41:54.003Z,4.40
2018-06-11T18:44:22.610Z,4.93
2018-06-11T18:46:50.998Z,5.23
2018-06-11T18:49:19.367Z,5.13
2018-06-11T18:51:47.767Z,4.97
2018-06-11T18:54:16.142Z,5.03
2018-06-11T18:56:44.530Z,4.83
2018-06-11T18:59:12.902Z,5.50
2018-06-11T19:01:41.289Z,5.90
2018-06-11T19:04:09.714Z,6.53
2018-06-11T19:06:38.114Z,5.30
2018-06-11T19:09:08.166Z,6.57
2018-06-11T19:11:36.562Z,5.70
2018-06-11T19:14:04.944Z,6.47
2018-06-11T19:16:33.334Z,6.20
2018-06-11T19:19:02.152Z,5.83
2018-06-11T19:21:30.538Z,6.60
2018-06-11T19:23:58.914Z,6.27
2018-06-11T19:26:27.319Z,6.30
2018-06-11T19:28:55.695Z,6.23
2018-06-11T19:31:24.098Z,6.83
2018-06-11T19:33:52.476Z,6.87
2018-06-11T19:36:20.876Z,5.90
2018-06-11T19:38:49.241Z,6.80
2018-06-11T19:41:17.642Z,6.60
2018-06-11T19:43:46.010Z,6.67
2018-06-11T19:46:14.411Z,6.67
2018-06-11T19:48:42.782Z,7.00
2018-06-11T19:51:11.209Z,6.80
2018-06-11T19:53:39.578Z,6.77
2018-06-11T19:56:07.974Z,7.10
2018-06-11T19:58:36.353Z,6.80
2018-06-11T20:01:04.854Z,7.43
2018-06-11T20:03:33.255Z,7.13
2018-06-11T20:06:01.715Z,7.30
2018-06-11T20:08:30.090Z,6.57
2018-06-11T20:10:58.467Z,8.13
2018-06-11T20:13:26.874Z,7.07
2018-06-11T20:15:55.242Z,7.37
2018-06-11T20:18:23.632Z,8.03
2018-06-11T20:20:52.014Z,8.60
2018-06-11T20:23:20.417Z,9.23
2018-06-11T20:25:48.788Z,7.17
2018-06-11T20:28:17.207Z,6.93
2018-06-11T20:30:45.580Z,8.00
2018-06-11T20:33:13.978Z,7.73
2018-06-11T20:35:42.342Z,8.77
2018-06-11T20:38:10.738Z,7.63
2018-06-11T20:40:39.111Z,8.33
2018-06-11T20:43:07.502Z,9.07
2018-06-11T20:45:35.875Z,8.23
2018-06-11T20:48:04.426Z,7.93
2018-06-11T20:50:32.786Z,7.53
2018-06-11T20:53:01.190Z,8.00
2018-06-11T20:55:29.562Z,8.40
2018-06-11T20:57:57.967Z,8.47
2018-06-11T21:00:26.347Z,7.57
2018-06-11T21:02:54.761Z,6.93
2018-06-11T21:05:23.137Z,8.70
2018-06-11T21:07:51.539Z,7.10
2018-06-11T21:10:19.918Z,8.03
2018-06-11T21:12:48.319Z,6.87
2018-06-11T21:15:16.691Z,6.10
2018-06-11T21:17:45.094Z,7.17
2018-06-11T21:20:13.467Z,7.10
2018-06-11T21:22:41.864Z,7.57
2018-06-11T21:25:10.253Z,6.83
2018-06-11T21:27:38.675Z,8.83
2018-06-11T21:30:07.042Z,7.73
2018-06-11T21:32:35.410Z,8.07
2018-06-11T21:35:03.811Z,9.17
2018-06-11T21:37:32.189Z,8.13
2018-06-11T21:40:00.610Z,8.37
2018-06-11T21:42:29.022Z,7.60
2018-06-11T21:44:57.416Z,7.93
2018-06-11T21:47:25.790Z,8.53
2018-06-11T21:49:54.193Z,7.53
2018-06-11T21:52:22.563Z,9.00
2018-06-11T21:54:50.966Z,8.17
2018-06-11T21:57:19.331Z,8.57
2018-06-11T21:59:47.723Z,7.60
2018-06-11T22:02:16.099Z,6.30
2018-06-11T22:04:44.519Z,7.70
2018-06-11T22:07:12.897Z,7.67
2018-06-11T22:09:41.310Z,6.40
2018-06-11T22:12:09.678Z,7.27
2018-06-11T22:14:38.070Z,8.10
2018-06-11T22:17:06.439Z,7.20
2018-06-11T22:19:34.834Z,7.07
2018-06-11T22:22:03.209Z,8.50
2018-06-11T22:24:31.602Z,7.90
2018-06-11T22:26:59.974Z,7.93
2018-06-11T22:29:28.365Z,7.00
2018-06-11T22:31:56.727Z,8.20
2018-06-11T22:34:25.119Z,8.00
2018-06-11T22:36:53.493Z,8.23
2018-06-11T22:39:21.885Z,8.00
2018-06-11T22:41:50.253Z,8.70
2018-06-11T22:44:18.646Z,9.00
2018-06-11T22:46:47.019Z,7.63
2018-06-11T22:49:15.423Z,9.53
2018-06-11T22:51:43.799Z,9.43
2018-06-11T22:54:12.174Z,9.13
2018-06-11T22:56:40.571Z,8.67
2018-06-11T22:59:08.947Z,8.90
2018-06-11T23:01:37.343Z,9.40
2018-06-11T23:04:05.775Z,10.00
2018-06-11T23:06:34.162Z,9.80
2018-06-11T23:09:02.544Z,10.03
2018-06-11T23:11:30.938Z,9.70
2018-06-11T23:13:59.318Z,10.30
2018-06-11T23:16:27.715Z,9.37
2018-06-11T23:18:56.090Z,11.53
2018-06-11T23:21:24.497Z,10.20
2018-06-11T23:23:52.881Z,10.93
2018-06-11T23:26:21.279Z,10.47
2018-06-11T23:28:49.663Z,10.67
2018-06-11T23:31:18.068Z,11.40
2018-06-11T23:33:46.443Z,10.83
2018-06-11T23:36:14.842Z,10.80
2018-06-11T23:38:43.219Z,10.73
2018-06-11T23:41:11.642Z,10.60
2018-06-11T23:43:40.011Z,12.20
2018-06-11T23:46:08.415Z,11.23
2018-06-11T23:48:36.790Z,10.20
2018-06-11T23:51:05.192Z,12.03
2018-06-11T23:53:33.573Z,12.83
2018-06-11T23:56:01.966Z,12.13
2018-06-11T23:58:30.339Z,12.03
